sensor_id;sensor_type;location;lat;lon;timestamp;temperature;humidity
18658;DHT22;9458;50.942;5.074;2022-07-06T00:01:50;18.20;93.30
18658;DHT22;9458;50.942;5.074;2022-07-06T00:04:18;18.10;93.30
18658;DHT22;9458;50.942;5.074;2022-07-06T00:06:45;18.10;93.30
18658;DHT22;9458;50.942;5.074;2022-07-06T00:09:13;18.10;93.30
18658;DHT22;9458;50.942;5.074;2022-07-06T00:11:41;18.10;93.30
18658;DHT22;9458;50.942;5.074;2022-07-06T00:14:09;18.00;93.40
18658;DHT22;9458;50.942;5.074;2022-07-06T00:16:36;18.10;93.40
18658;DHT22;9458;50.942;5.074;2022-07-06T00:19:08;18.00;93.40
18658;DHT22;9458;50.942;5.074;2022-07-06T00:21:37;18.00;93.40
18658;DHT22;9458;50.942;5.074;2022-07-06T00:24:06;18.00;93.50
18658;DHT22;9458;50.942;5.074;2022-07-06T00:26:35;17.90;93.50
18658;DHT22;9458;50.942;5.074;2022-07-06T00:29:06;17.90;93.50
18658;DHT22;9458;50.942;5.074;2022-07-06T00:31:34;17.90;93.60
18658;DHT22;9458;50.942;5.074;2022-07-06T00:34:03;17.90;93.70
18658;DHT22;9458;50.942;5.074;2022-07-06T00:36:33;17.90;93.70
18658;DHT22;9458;50.942;5.074;2022-07-06T00:39:00;17.80;93.60
18658;DHT22;9458;50.942;5.074;2022-07-06T00:41:28;17.90;93.70
18658;DHT22;9458;50.942;5.074;2022-07-06T00:43:57;17.80;93.60
18658;DHT22;9458;50.942;5.074;2022-07-06T00:46:28;17.80;93.60
18658;DHT22;9458;50.942;5.074;2022-07-06T00:48:56;17.80;93.70
18658;DHT22;9458;50.942;5.074;2022-07-06T00:51:29;17.70;93.70
18658;DHT22;9458;50.942;5.074;2022-07-06T00:54:03;17.70;93.80
18658;DHT22;9458;50.942;5.074;2022-07-06T00:56:31;17.70;93.90
18658;DHT22;9458;50.942;5.074;2022-07-06T00:59:00;17.70;93.90
18658;DHT22;9458;50.942;5.074;2022-07-06T01:01:28;17.60;93.80
18658;DHT22;9458;50.942;5.074;2022-07-06T01:03:56;17.60;93.90
18658;DHT22;9458;50.942;5.074;2022-07-06T01:06:23;17.60;94.00
18658;DHT22;9458;50.942;5.074;2022-07-06T01:08:54;17.60;94.00
18658;DHT22;9458;50.942;5.074;2022-07-06T01:11:23;17.50;94.00
18658;DHT22;9458;50.942;5.074;2022-07-06T01:13:52;17.50;94.00
18658;DHT22;9458;50.942;5.074;2022-07-06T01:16:19;17.50;94.20
18658;DHT22;9458;50.942;5.074;2022-07-06T01:18:47;17.40;94.00
18658;DHT22;9458;50.942;5.074;2022-07-06T01:21:16;17.40;94.20
18658;DHT22;9458;50.942;5.074;2022-07-06T01:23:46;17.40;94.20
18658;DHT22;9458;50.942;5.074;2022-07-06T01:26:16;17.40;94.20
18658;DHT22;9458;50.942;5.074;2022-07-06T01:28:46;17.40;94.20
18658;DHT22;9458;50.942;5.074;2022-07-06T01:31:19;17.40;94.30
18658;DHT22;9458;50.942;5.074;2022-07-06T01:33:50;17.30;94.30
18658;DHT22;9458;50.942;5.074;2022-07-06T01:36:19;17.30;94.30
18658;DHT22;9458;50.942;5.074;2022-07-06T01:38:51;17.30;94.40
18658;DHT22;9458;50.942;5.074;2022-07-06T01:41:19;17.30;94.50
18658;DHT22;9458;50.942;5.074;2022-07-06T01:43:47;17.20;94.50
18658;DHT22;9458;50.942;5.074;2022-07-06T01:46:14;17.20;94.50
18658;DHT22;9458;50.942;5.074;2022-07-06T01:48:42;17.20;94.70
18658;DHT22;9458;50.942;5.074;2022-07-06T01:51:10;17.20;94.70
18658;DHT22;9458;50.942;5.074;2022-07-06T01:53:40;17.20;94.70
18658;DHT22;9458;50.942;5.074;2022-07-06T01:56:10;17.20;94.70
18658;DHT22;9458;50.942;5.074;2022-07-06T01:58:38;17.20;94.70
18658;DHT22;9458;50.942;5.074;2022-07-06T02:01:09;17.10;94.70
18658;DHT22;9458;50.942;5.074;2022-07-06T02:03:38;17.10;94.70
18658;DHT22;9458;50.942;5.074;2022-07-06T02:06:07;17.10;94.80
18658;DHT22;9458;50.942;5.074;2022-07-06T02:08:36;17.00;95.00
18658;DHT22;9458;50.942;5.074;2022-07-06T02:11:07;17.00;95.00
18658;DHT22;9458;50.942;5.074;2022-07-06T02:13:35;16.90;95.10
18658;DHT22;9458;50.942;5.074;2022-07-06T02:16:04;17.00;95.20
18658;DHT22;9458;50.942;5.074;2022-07-06T02:18:31;17.00;95.20
18658;DHT22;9458;50.942;5.074;2022-07-06T02:21:00;16.90;95.20
18658;DHT22;9458;50.942;5.074;2022-07-06T02:23:27;16.90;95.40
18658;DHT22;9458;50.942;5.074;2022-07-06T02:25:55;16.90;95.40
18658;DHT22;9458;50.942;5.074;2022-07-06T02:28:24;16.80;95.40
18658;DHT22;9458;50.942;5.074;2022-07-06T02:30:52;16.80;95.50
18658;DHT22;9458;50.942;5.074;2022-07-06T02:33:19;16.80;95.50
18658;DHT22;9458;50.942;5.074;2022-07-06T02:35:47;16.80;95.50
18658;DHT22;9458;50.942;5.074;2022-07-06T02:38:14;16.80;95.90
18658;DHT22;9458;50.942;5.074;2022-07-06T02:40:42;16.80;95.60
18658;DHT22;9458;50.942;5.074;2022-07-06T02:43:10;16.80;96.00
18658;DHT22;9458;50.942;5.074;2022-07-06T02:45:40;16.70;95.70
18658;DHT22;9458;50.942;5.074;2022-07-06T02:48:08;16.70;95.70
18658;DHT22;9458;50.942;5.074;2022-07-06T02:50:35;16.70;95.70
18658;DHT22;9458;50.942;5.074;2022-07-06T02:53:03;16.70;95.80
18658;DHT22;9458;50.942;5.074;2022-07-06T02:55:31;16.70;95.90
18658;DHT22;9458;50.942;5.074;2022-07-06T02:57:59;16.60;96.10
18658;DHT22;9458;50.942;5.074;2022-07-06T03:00:28;16.60;96.10
18658;DHT22;9458;50.942;5.074;2022-07-06T03:03:10;16.60;96.20
18658;DHT22;9458;50.942;5.074;2022-07-06T03:05:47;16.60;96.30
18658;DHT22;9458;50.942;5.074;2022-07-06T03:08:20;16.50;96.30
18658;DHT22;9458;50.942;5.074;2022-07-06T03:10:48;16.50;96.40
18658;DHT22;9458;50.942;5.074;2022-07-06T03:13:16;16.50;96.40
18658;DHT22;9458;50.942;5.074;2022-07-06T03:15:43;16.50;96.50
18658;DHT22;9458;50.942;5.074;2022-07-06T03:18:12;16.50;96.50
18658;DHT22;9458;50.942;5.074;2022-07-06T03:20:40;16.50;96.50
18658;DHT22;9458;50.942;5.074;2022-07-06T03:23:07;16.60;96.50
18658;DHT22;9458;50.942;5.074;2022-07-06T03:25:35;16.50;96.60
18658;DHT22;9458;50.942;5.074;2022-07-06T03:28:03;16.50;96.60
18658;DHT22;9458;50.942;5.074;2022-07-06T03:30:32;16.50;96.70
18658;DHT22;9458;50.942;5.074;2022-07-06T03:32:59;16.50;96.70
18658;DHT22;9458;50.942;5.074;2022-07-06T03:35:28;16.50;96.70
18658;DHT22;9458;50.942;5.074;2022-07-06T03:37:56;16.40;96.60
18658;DHT22;9458;50.942;5.074;2022-07-06T03:40:24;16.40;96.20
18658;DHT22;9458;50.942;5.074;2022-07-06T03:42:52;16.40;96.20
18658;DHT22;9458;50.942;5.074;2022-07-06T03:45:20;16.30;96.20
18658;DHT22;9458;50.942;5.074;2022-07-06T03:47:47;16.30;96.40
18658;DHT22;9458;50.942;5.074;2022-07-06T03:50:15;16.30;96.30
18658;DHT22;9458;50.942;5.074;2022-07-06T03:52:45;16.30;96.20
18658;DHT22;9458;50.942;5.074;2022-07-06T03:55:12;16.30;96.40
18658;DHT22;9458;50.942;5.074;2022-07-06T03:57:40;16.30;96.40
18658;DHT22;9458;50.942;5.074;2022-07-06T04:00:09;16.20;96.50
18658;DHT22;9458;50.942;5.074;2022-07-06T04:02:37;16.30;96.60
18658;DHT22;9458;50.942;5.074;2022-07-06T04:05:05;16.30;96.50
18658;DHT22;9458;50.942;5.074;2022-07-06T04:07:32;16.40;96.60
18658;DHT22;9458;50.942;5.074;2022-07-06T04:10:02;16.40;96.50
18658;DHT22;9458;50.942;5.074;2022-07-06T04:12:30;16.50;96.50
18658;DHT22;9458;50.942;5.074;2022-07-06T04:14:59;16.50;96.20
18658;DHT22;9458;50.942;5.074;2022-07-06T04:17:30;16.60;96.00
18658;DHT22;9458;50.942;5.074;2022-07-06T04:20:14;16.60;96.10
18658;DHT22;9458;50.942;5.074;2022-07-06T04:22:41;16.60;96.10
18658;DHT22;9458;50.942;5.074;2022-07-06T04:25:10;16.70;96.30
18658;DHT22;9458;50.942;5.074;2022-07-06T04:27:38;16.80;96.40
18658;DHT22;9458;50.942;5.074;2022-07-06T04:30:08;16.80;96.50
18658;DHT22;9458;50.942;5.074;2022-07-06T04:32:36;16.90;96.50
18658;DHT22;9458;50.942;5.074;2022-07-06T04:35:05;16.90;96.60
18658;DHT22;9458;50.942;5.074;2022-07-06T04:37:33;17.00;96.50
18658;DHT22;9458;50.942;5.074;2022-07-06T04:40:01;17.10;96.70
18658;DHT22;9458;50.942;5.074;2022-07-06T04:42:30;17.20;96.60
18658;DHT22;9458;50.942;5.074;2022-07-06T04:45:00;17.20;96.60
18658;DHT22;9458;50.942;5.074;2022-07-06T04:47:28;17.30;96.60
18658;DHT22;9458;50.942;5.074;2022-07-06T04:49:56;17.20;96.70
18658;DHT22;9458;50.942;5.074;2022-07-06T04:52:24;17.30;97.10
18658;DHT22;9458;50.942;5.074;2022-07-06T04:54:51;17.40;97.10
18658;DHT22;9458;50.942;5.074;2022-07-06T04:57:18;17.40;97.00
18658;DHT22;9458;50.942;5.074;2022-07-06T04:59:49;17.50;97.00
18658;DHT22;9458;50.942;5.074;2022-07-06T05:02:16;17.60;97.00
18658;DHT22;9458;50.942;5.074;2022-07-06T05:04:43;17.60;97.00
18658;DHT22;9458;50.942;5.074;2022-07-06T05:07:11;17.60;97.20
18658;DHT22;9458;50.942;5.074;2022-07-06T05:09:38;17.70;97.50
18658;DHT22;9458;50.942;5.074;2022-07-06T05:12:09;17.70;97.60
18658;DHT22;9458;50.942;5.074;2022-07-06T05:14:36;17.80;97.90
18658;DHT22;9458;50.942;5.074;2022-07-06T05:17:05;17.80;98.20
18658;DHT22;9458;50.942;5.074;2022-07-06T05:19:33;17.80;98.40
18658;DHT22;9458;50.942;5.074;2022-07-06T05:22:01;17.90;98.60
18658;DHT22;9458;50.942;5.074;2022-07-06T05:24:28;17.90;98.50
18658;DHT22;9458;50.942;5.074;2022-07-06T05:26:55;17.80;98.30
18658;DHT22;9458;50.942;5.074;2022-07-06T05:29:24;17.80;98.60
18658;DHT22;9458;50.942;5.074;2022-07-06T05:31:55;17.80;98.70
18658;DHT22;9458;50.942;5.074;2022-07-06T05:34:24;17.80;99.10
18658;DHT22;9458;50.942;5.074;2022-07-06T05:36:52;17.80;99.20
18658;DHT22;9458;50.942;5.074;2022-07-06T05:39:20;17.90;99.20
18658;DHT22;9458;50.942;5.074;2022-07-06T05:41:49;17.80;99.20
18658;DHT22;9458;50.942;5.074;2022-07-06T05:44:17;17.80;99.30
18658;DHT22;9458;50.942;5.074;2022-07-06T05:46:45;17.90;99.30
18658;DHT22;9458;50.942;5.074;2022-07-06T05:49:13;17.90;99.30
18658;DHT22;9458;50.942;5.074;2022-07-06T05:52:08;18.00;99.40
18658;DHT22;9458;50.942;5.074;2022-07-06T05:54:35;18.10;99.30
18658;DHT22;9458;50.942;5.074;2022-07-06T05:57:03;18.20;99.10
18658;DHT22;9458;50.942;5.074;2022-07-06T05:59:31;18.30;99.00
18658;DHT22;9458;50.942;5.074;2022-07-06T06:01:58;18.50;98.80
18658;DHT22;9458;50.942;5.074;2022-07-06T06:04:26;18.70;98.60
18658;DHT22;9458;50.942;5.074;2022-07-06T06:06:54;19.00;98.60
18658;DHT22;9458;50.942;5.074;2022-07-06T06:09:23;19.10;98.10
18658;DHT22;9458;50.942;5.074;2022-07-06T06:11:51;19.20;97.90
18658;DHT22;9458;50.942;5.074;2022-07-06T06:14:18;19.10;97.90
18658;DHT22;9458;50.942;5.074;2022-07-06T06:16:45;19.10;97.70
18658;DHT22;9458;50.942;5.074;2022-07-06T06:19:13;19.10;98.00
18658;DHT22;9458;50.942;5.074;2022-07-06T06:21:41;19.10;98.50
18658;DHT22;9458;50.942;5.074;2022-07-06T06:24:08;19.30;98.50
18658;DHT22;9458;50.942;5.074;2022-07-06T06:26:38;19.50;98.30
18658;DHT22;9458;50.942;5.074;2022-07-06T06:29:05;19.80;98.40
18658;DHT22;9458;50.942;5.074;2022-07-06T06:31:33;19.90;98.30
18658;DHT22;9458;50.942;5.074;2022-07-06T06:34:00;20.10;98.20
18658;DHT22;9458;50.942;5.074;2022-07-06T06:36:28;20.10;98.20
18658;DHT22;9458;50.942;5.074;2022-07-06T06:38:56;20.10;98.10
18658;DHT22;9458;50.942;5.074;2022-07-06T06:41:23;20.30;98.10
18658;DHT22;9458;50.942;5.074;2022-07-06T06:43:53;20.50;98.10
18658;DHT22;9458;50.942;5.074;2022-07-06T06:46:22;20.70;97.80
18658;DHT22;9458;50.942;5.074;2022-07-06T06:48:50;20.80;97.50
18658;DHT22;9458;50.942;5.074;2022-07-06T06:51:17;21.30;97.40
18658;DHT22;9458;50.942;5.074;2022-07-06T06:53:48;22.00;97.50
18658;DHT22;9458;50.942;5.074;2022-07-06T06:56:17;22.70;96.50
18658;DHT22;9458;50.942;5.074;2022-07-06T06:58:46;23.40;95.70
18658;DHT22;9458;50.942;5.074;2022-07-06T07:01:14;24.00;94.50
18658;DHT22;9458;50.942;5.074;2022-07-06T07:03:43;24.50;93.30
18658;DHT22;9458;50.942;5.074;2022-07-06T07:06:11;24.90;92.40
18658;DHT22;9458;50.942;5.074;2022-07-06T07:08:39;25.30;91.80
18658;DHT22;9458;50.942;5.074;2022-07-06T07:11:06;25.50;89.10
18658;DHT22;9458;50.942;5.074;2022-07-06T07:13:33;26.00;88.10
18658;DHT22;9458;50.942;5.074;2022-07-06T07:16:01;26.40;85.50
18658;DHT22;9458;50.942;5.074;2022-07-06T07:18:30;26.80;85.50
18658;DHT22;9458;50.942;5.074;2022-07-06T07:20:58;27.00;81.20
18658;DHT22;9458;50.942;5.074;2022-07-06T07:23:26;27.20;83.10
18658;DHT22;9458;50.942;5.074;2022-07-06T07:25:54;27.40;83.10
18658;DHT22;9458;50.942;5.074;2022-07-06T07:28:21;27.30;80.50
18658;DHT22;9458;50.942;5.074;2022-07-06T07:30:49;27.30;80.50
18658;DHT22;9458;50.942;5.074;2022-07-06T07:33:17;27.50;80.60
18658;DHT22;9458;50.942;5.074;2022-07-06T07:35:46;27.60;79.60
18658;DHT22;9458;50.942;5.074;2022-07-06T07:38:13;27.90;79.80
18658;DHT22;9458;50.942;5.074;2022-07-06T07:40:41;28.10;79.50
18658;DHT22;9458;50.942;5.074;2022-07-06T07:43:08;28.40;78.90
18658;DHT22;9458;50.942;5.074;2022-07-06T07:45:36;28.70;78.70
18658;DHT22;9458;50.942;5.074;2022-07-06T07:48:05;29.10;75.70
18658;DHT22;9458;50.942;5.074;2022-07-06T07:50:33;29.30;73.20
18658;DHT22;9458;50.942;5.074;2022-07-06T07:53:03;29.50;71.00
18658;DHT22;9458;50.942;5.074;2022-07-06T07:55:32;29.90;72.80
18658;DHT22;9458;50.942;5.074;2022-07-06T07:57:59;30.40;74.20
18658;DHT22;9458;50.942;5.074;2022-07-06T08:00:26;30.60;70.50
18658;DHT22;9458;50.942;5.074;2022-07-06T08:02:54;30.50;71.10
18658;DHT22;9458;50.942;5.074;2022-07-06T08:05:22;30.70;70.80
18658;DHT22;9458;50.942;5.074;2022-07-06T08:07:50;30.90;71.40
18658;DHT22;9458;50.942;5.074;2022-07-06T08:10:22;31.00;71.00
18658;DHT22;9458;50.942;5.074;2022-07-06T08:12:50;31.10;69.20
18658;DHT22;9458;50.942;5.074;2022-07-06T08:15:17;31.20;69.90
18658;DHT22;9458;50.942;5.074;2022-07-06T08:17:46;31.30;67.00
18658;DHT22;9458;50.942;5.074;2022-07-06T08:20:14;31.40;67.10
18658;DHT22;9458;50.942;5.074;2022-07-06T08:22:42;31.40;67.80
18658;DHT22;9458;50.942;5.074;2022-07-06T08:25:10;31.60;70.40
18658;DHT22;9458;50.942;5.074;2022-07-06T08:27:39;31.80;68.40
18658;DHT22;9458;50.942;5.074;2022-07-06T08:30:07;31.80;67.30
18658;DHT22;9458;50.942;5.074;2022-07-06T08:32:37;32.00;66.80
18658;DHT22;9458;50.942;5.074;2022-07-06T08:35:06;32.10;66.00
18658;DHT22;9458;50.942;5.074;2022-07-06T08:37:33;32.20;68.10
18658;DHT22;9458;50.942;5.074;2022-07-06T08:40:05;32.30;66.30
18658;DHT22;9458;50.942;5.074;2022-07-06T08:42:35;32.40;65.70
18658;DHT22;9458;50.942;5.074;2022-07-06T08:45:07;31.90;64.20
18658;DHT22;9458;50.942;5.074;2022-07-06T08:47:36;31.50;65.00
18658;DHT22;9458;50.942;5.074;2022-07-06T08:50:08;31.70;66.20
18658;DHT22;9458;50.942;5.074;2022-07-06T08:52:36;31.70;66.80
18658;DHT22;9458;50.942;5.074;2022-07-06T08:55:05;32.00;67.90
18658;DHT22;9458;50.942;5.074;2022-07-06T08:57:33;32.30;66.80
18658;DHT22;9458;50.942;5.074;2022-07-06T09:00:00;32.50;66.50
18658;DHT22;9458;50.942;5.074;2022-07-06T09:02:30;32.80;65.10
18658;DHT22;9458;50.942;5.074;2022-07-06T09:04:58;33.10;65.40
18658;DHT22;9458;50.942;5.074;2022-07-06T09:07:27;33.50;65.00
18658;DHT22;9458;50.942;5.074;2022-07-06T09:09:55;33.50;62.80
18658;DHT22;9458;50.942;5.074;2022-07-06T09:12:27;33.90;63.50
18658;DHT22;9458;50.942;5.074;2022-07-06T09:14:55;34.10;64.30
18658;DHT22;9458;50.942;5.074;2022-07-06T09:17:26;34.10;63.20
18658;DHT22;9458;50.942;5.074;2022-07-06T09:19:56;34.00;61.10
18658;DHT22;9458;50.942;5.074;2022-07-06T09:22:26;34.00;62.40
18658;DHT22;9458;50.942;5.074;2022-07-06T09:25:01;33.90;63.20
18658;DHT22;9458;50.942;5.074;2022-07-06T09:27:29;33.20;61.80
18658;DHT22;9458;50.942;5.074;2022-07-06T09:30:00;32.70;63.20
18658;DHT22;9458;50.942;5.074;2022-07-06T09:32:28;32.80;65.30
18658;DHT22;9458;50.942;5.074;2022-07-06T09:34:57;32.80;64.20
18658;DHT22;9458;50.942;5.074;2022-07-06T09:37:29;32.80;64.30
18658;DHT22;9458;50.942;5.074;2022-07-06T09:39:56;32.70;65.00
18658;DHT22;9458;50.942;5.074;2022-07-06T09:42:26;32.20;62.60
18658;DHT22;9458;50.942;5.074;2022-07-06T09:44:54;32.10;64.90
18658;DHT22;9458;50.942;5.074;2022-07-06T09:47:21;31.70;64.10
18658;DHT22;9458;50.942;5.074;2022-07-06T09:49:49;31.40;66.10
18658;DHT22;9458;50.942;5.074;2022-07-06T09:52:19;31.50;67.40
18658;DHT22;9458;50.942;5.074;2022-07-06T09:54:49;31.20;66.10
18658;DHT22;9458;50.942;5.074;2022-07-06T09:57:17;31.00;66.30
18658;DHT22;9458;50.942;5.074;2022-07-06T09:59:50;30.70;66.50
18658;DHT22;9458;50.942;5.074;2022-07-06T10:02:20;30.40;67.70
18658;DHT22;9458;50.942;5.074;2022-07-06T10:04:48;30.10;68.00
18658;DHT22;9458;50.942;5.074;2022-07-06T10:07:21;29.70;67.70
18658;DHT22;9458;50.942;5.074;2022-07-06T10:09:52;29.60;70.20
18658;DHT22;9458;50.942;5.074;2022-07-06T10:12:19;29.30;68.10
18658;DHT22;9458;50.942;5.074;2022-07-06T10:14:48;29.30;69.30
18658;DHT22;9458;50.942;5.074;2022-07-06T10:17:16;29.30;71.10
18658;DHT22;9458;50.942;5.074;2022-07-06T10:19:46;29.40;71.90
18658;DHT22;9458;50.942;5.074;2022-07-06T10:22:14;29.30;70.80
18658;DHT22;9458;50.942;5.074;2022-07-06T10:24:46;29.30;70.70
18658;DHT22;9458;50.942;5.074;2022-07-06T10:27:15;29.20;70.60
18658;DHT22;9458;50.942;5.074;2022-07-06T10:29:42;29.20;71.60
18658;DHT22;9458;50.942;5.074;2022-07-06T10:32:10;29.20;70.90
18658;DHT22;9458;50.942;5.074;2022-07-06T10:34:38;28.80;71.90
18658;DHT22;9458;50.942;5.074;2022-07-06T10:37:21;28.90;72.30
18658;DHT22;9458;50.942;5.074;2022-07-06T10:39:52;29.00;73.50
18658;DHT22;9458;50.942;5.074;2022-07-06T10:42:43;29.10;73.40
18658;DHT22;9458;50.942;5.074;2022-07-06T10:45:13;28.90;71.20
18658;DHT22;9458;50.942;5.074;2022-07-06T10:47:41;28.80;69.40
18658;DHT22;9458;50.942;5.074;2022-07-06T10:50:10;28.70;71.10
18658;DHT22;9458;50.942;5.074;2022-07-06T10:52:51;28.60;72.20
18658;DHT22;9458;50.942;5.074;2022-07-06T10:55:35;28.70;73.60
18658;DHT22;9458;50.942;5.074;2022-07-06T10:58:04;28.80;73.70
18658;DHT22;9458;50.942;5.074;2022-07-06T11:00:51;28.50;73.40
18658;DHT22;9458;50.942;5.074;2022-07-06T11:03:32;28.60;74.20
18658;DHT22;9458;50.942;5.074;2022-07-06T11:06:00;28.70;73.70
18658;DHT22;9458;50.942;5.074;2022-07-06T11:08:48;28.60;73.90
18658;DHT22;9458;50.942;5.074;2022-07-06T11:11:20;28.60;73.60
18658;DHT22;9458;50.942;5.074;2022-07-06T11:13:53;28.60;73.00
18658;DHT22;9458;50.942;5.074;2022-07-06T11:16:22;28.50;73.40
18658;DHT22;9458;50.942;5.074;2022-07-06T11:19:09;28.50;74.20
18658;DHT22;9458;50.942;5.074;2022-07-06T11:21:48;28.60;75.00
18658;DHT22;9458;50.942;5.074;2022-07-06T11:24:19;28.40;73.00
18658;DHT22;9458;50.942;5.074;2022-07-06T11:26:50;28.20;72.50
18658;DHT22;9458;50.942;5.074;2022-07-06T11:29:21;28.30;74.40
18658;DHT22;9458;50.942;5.074;2022-07-06T11:31:52;28.20;73.90
18658;DHT22;9458;50.942;5.074;2022-07-06T11:34:20;28.30;72.40
18658;DHT22;9458;50.942;5.074;2022-07-06T11:36:49;28.20;73.40
18658;DHT22;9458;50.942;5.074;2022-07-06T11:39:21;28.10;73.50
18658;DHT22;9458;50.942;5.074;2022-07-06T11:41:50;28.00;74.00
18658;DHT22;9458;50.942;5.074;2022-07-06T11:44:17;28.10;74.00
18658;DHT22;9458;50.942;5.074;2022-07-06T11:46:45;28.10;75.40
18658;DHT22;9458;50.942;5.074;2022-07-06T11:49:13;27.90;74.60
18658;DHT22;9458;50.942;5.074;2022-07-06T11:51:42;27.90;73.70
18658;DHT22;9458;50.942;5.074;2022-07-06T11:54:11;27.90;74.50
18658;DHT22;9458;50.942;5.074;2022-07-06T11:56:46;28.00;76.50
18658;DHT22;9458;50.942;5.074;2022-07-06T11:59:16;27.90;73.30
18658;DHT22;9458;50.942;5.074;2022-07-06T12:01:47;27.90;73.20
18658;DHT22;9458;50.942;5.074;2022-07-06T12:04:14;27.80;73.80
18658;DHT22;9458;50.942;5.074;2022-07-06T12:06:43;27.70;75.00
18658;DHT22;9458;50.942;5.074;2022-07-06T12:09:11;27.60;76.10
18658;DHT22;9458;50.942;5.074;2022-07-06T12:11:40;27.70;76.70
18658;DHT22;9458;50.942;5.074;2022-07-06T12:14:18;27.60;74.90
18658;DHT22;9458;50.942;5.074;2022-07-06T12:16:47;27.60;77.20
18658;DHT22;9458;50.942;5.074;2022-07-06T12:19:15;27.70;76.70
18658;DHT22;9458;50.942;5.074;2022-07-06T12:21:46;27.80;76.80
18658;DHT22;9458;50.942;5.074;2022-07-06T12:24:19;27.80;74.40
18658;DHT22;9458;50.942;5.074;2022-07-06T12:26:47;27.90;76.60
18658;DHT22;9458;50.942;5.074;2022-07-06T12:29:17;27.90;75.20
18658;DHT22;9458;50.942;5.074;2022-07-06T12:31:49;27.80;74.30
18658;DHT22;9458;50.942;5.074;2022-07-06T12:34:19;27.70;76.00
18658;DHT22;9458;50.942;5.074;2022-07-06T12:36:48;27.60;75.10
18658;DHT22;9458;50.942;5.074;2022-07-06T12:39:19;27.50;74.30
18658;DHT22;9458;50.942;5.074;2022-07-06T12:41:48;27.40;74.60
18658;DHT22;9458;50.942;5.074;2022-07-06T12:44:19;27.30;75.30
18658;DHT22;9458;50.942;5.074;2022-07-06T12:46:48;27.30;74.40
18658;DHT22;9458;50.942;5.074;2022-07-06T12:49:18;27.40;75.00
18658;DHT22;9458;50.942;5.074;2022-07-06T12:51:55;27.40;76.40
18658;DHT22;9458;50.942;5.074;2022-07-06T12:54:24;27.30;76.50
18658;DHT22;9458;50.942;5.074;2022-07-06T12:57:05;27.10;75.20
18658;DHT22;9458;50.942;5.074;2022-07-06T12:59:36;27.10;76.20
18658;DHT22;9458;50.942;5.074;2022-07-06T13:02:06;27.10;76.40
18658;DHT22;9458;50.942;5.074;2022-07-06T13:04:36;27.00;76.90
18658;DHT22;9458;50.942;5.074;2022-07-06T13:07:04;27.00;77.30
18658;DHT22;9458;50.942;5.074;2022-07-06T13:09:32;27.00;76.50
18658;DHT22;9458;50.942;5.074;2022-07-06T13:11:59;27.00;77.20
18658;DHT22;9458;50.942;5.074;2022-07-06T13:14:27;27.00;77.30
18658;DHT22;9458;50.942;5.074;2022-07-06T13:16:56;27.00;76.50
18658;DHT22;9458;50.942;5.074;2022-07-06T13:19:24;27.00;77.50
18658;DHT22;9458;50.942;5.074;2022-07-06T13:21:52;26.90;74.50
18658;DHT22;9458;50.942;5.074;2022-07-06T13:24:19;26.70;74.50
18658;DHT22;9458;50.942;5.074;2022-07-06T13:26:47;26.80;77.90
18658;DHT22;9458;50.942;5.074;2022-07-06T13:29:14;26.80;77.20
18658;DHT22;9458;50.942;5.074;2022-07-06T13:31:50;26.80;77.90
18658;DHT22;9458;50.942;5.074;2022-07-06T13:34:19;26.70;78.20
18658;DHT22;9458;50.942;5.074;2022-07-06T13:36:46;26.70;78.40
18658;DHT22;9458;50.942;5.074;2022-07-06T13:39:14;26.60;78.40
18658;DHT22;9458;50.942;5.074;2022-07-06T13:41:42;26.60;78.80
18658;DHT22;9458;50.942;5.074;2022-07-06T13:44:10;26.70;80.00
18658;DHT22;9458;50.942;5.074;2022-07-06T13:46:39;26.60;78.80
18658;DHT22;9458;50.942;5.074;2022-07-06T13:49:08;26.60;77.40
18658;DHT22;9458;50.942;5.074;2022-07-06T13:51:37;26.60;77.80
18658;DHT22;9458;50.942;5.074;2022-07-06T13:54:05;26.60;77.50
18658;DHT22;9458;50.942;5.074;2022-07-06T13:56:33;26.50;78.00
18658;DHT22;9458;50.942;5.074;2022-07-06T13:59:01;26.40;78.80
18658;DHT22;9458;50.942;5.074;2022-07-06T14:01:28;26.40;80.20
18658;DHT22;9458;50.942;5.074;2022-07-06T14:03:55;26.40;78.90
18658;DHT22;9458;50.942;5.074;2022-07-06T14:06:23;26.30;78.40
18658;DHT22;9458;50.942;5.074;2022-07-06T14:08:52;26.40;78.90
18658;DHT22;9458;50.942;5.074;2022-07-06T14:11:20;26.30;78.50
18658;DHT22;9458;50.942;5.074;2022-07-06T14:13:48;26.20;79.50
18658;DHT22;9458;50.942;5.074;2022-07-06T14:16:15;26.20;80.70
18658;DHT22;9458;50.942;5.074;2022-07-06T14:18:43;26.20;80.60
18658;DHT22;9458;50.942;5.074;2022-07-06T14:21:12;26.20;79.90
18658;DHT22;9458;50.942;5.074;2022-07-06T14:23:40;26.10;80.70
18658;DHT22;9458;50.942;5.074;2022-07-06T14:26:10;26.10;80.40
18658;DHT22;9458;50.942;5.074;2022-07-06T14:28:37;26.10;79.90
18658;DHT22;9458;50.942;5.074;2022-07-06T14:31:09;26.10;79.40
18658;DHT22;9458;50.942;5.074;2022-07-06T14:33:37;26.00;80.10
18658;DHT22;9458;50.942;5.074;2022-07-06T14:36:08;26.00;80.70
18658;DHT22;9458;50.942;5.074;2022-07-06T14:38:35;25.90;79.70
18658;DHT22;9458;50.942;5.074;2022-07-06T14:41:04;25.80;80.00
18658;DHT22;9458;50.942;5.074;2022-07-06T14:43:33;25.70;81.20
18658;DHT22;9458;50.942;5.074;2022-07-06T14:46:02;25.80;81.10
18658;DHT22;9458;50.942;5.074;2022-07-06T14:48:29;25.80;81.40
18658;DHT22;9458;50.942;5.074;2022-07-06T14:50:57;25.80;80.70
18658;DHT22;9458;50.942;5.074;2022-07-06T14:53:24;25.80;80.30
18658;DHT22;9458;50.942;5.074;2022-07-06T14:55:52;25.70;80.00
18658;DHT22;9458;50.942;5.074;2022-07-06T14:58:20;25.70;78.70
18658;DHT22;9458;50.942;5.074;2022-07-06T15:00:50;25.70;79.90
18658;DHT22;9458;50.942;5.074;2022-07-06T15:03:18;25.70;80.50
18658;DHT22;9458;50.942;5.074;2022-07-06T15:05:47;25.70;81.70
18658;DHT22;9458;50.942;5.074;2022-07-06T15:08:15;25.70;82.30
18658;DHT22;9458;50.942;5.074;2022-07-06T15:10:44;25.70;81.90
18658;DHT22;9458;50.942;5.074;2022-07-06T15:13:12;25.70;82.90
18658;DHT22;9458;50.942;5.074;2022-07-06T15:15:39;25.80;82.70
18658;DHT22;9458;50.942;5.074;2022-07-06T15:18:08;25.90;82.10
18658;DHT22;9458;50.942;5.074;2022-07-06T15:20:36;25.90;82.40
18658;DHT22;9458;50.942;5.074;2022-07-06T15:23:03;25.90;81.90
18658;DHT22;9458;50.942;5.074;2022-07-06T15:25:31;25.90;81.70
18658;DHT22;9458;50.942;5.074;2022-07-06T15:27:58;25.90;82.50
18658;DHT22;9458;50.942;5.074;2022-07-06T15:30:26;25.90;81.50
18658;DHT22;9458;50.942;5.074;2022-07-06T15:32:54;25.80;82.00
18658;DHT22;9458;50.942;5.074;2022-07-06T15:35:24;25.70;82.20
18658;DHT22;9458;50.942;5.074;2022-07-06T15:37:52;25.60;83.50
18658;DHT22;9458;50.942;5.074;2022-07-06T15:40:33;25.70;83.10
18658;DHT22;9458;50.942;5.074;2022-07-06T15:43:16;25.60;82.80
18658;DHT22;9458;50.942;5.074;2022-07-06T15:45:45;25.60;82.70
18658;DHT22;9458;50.942;5.074;2022-07-06T15:48:13;25.60;83.20
18658;DHT22;9458;50.942;5.074;2022-07-06T15:50:42;25.60;83.80
18658;DHT22;9458;50.942;5.074;2022-07-06T15:53:09;25.60;83.00
18658;DHT22;9458;50.942;5.074;2022-07-06T15:55:37;25.70;83.50
18658;DHT22;9458;50.942;5.074;2022-07-06T15:58:05;25.70;83.60